Time;durP1;ratioP1;P1;durP2;ratioP2;P2;SDS_P1;SDS_P2;PMS_P1;PMS_P2;Temp;Humidity;BMP_temperature;BMP_pressure;BME280_temperature;BME280_humidity;BME280_pressure;Samples;Min_cycle;Max_cycle;Signal;HPM_P1;HPM_P2
2022/07/22 00:01:06;;;;;;;0.40;0.40;;;15.40;99.90;;;;;;5084824;28;21190;-75
2022/07/22 00:03:32;;;;;;;;;;;15.40;99.90;;;;;;5088690;28;20108;-75
2022/07/22 00:05:57;;;;;;;0.35;0.35;;;15.40;99.90;;;;;;5097905;28;19928;-74
2022/07/22 00:08:23;;;;;;;0.40;0.40;;;15.40;99.90;;;;;;5088846;28;20477;-76
2022/07/22 00:10:49;;;;;;;0.88;0.88;;;15.30;99.90;;;;;;5078965;28;20053;-76
2022/07/22 00:13:15;;;;;;;;;;;15.40;99.90;;;;;;5082529;28;20068;-75
2022/07/22 00:15:40;;;;;;;0.30;0.30;;;15.30;99.90;;;;;;5079899;28;19927;-77
2022/07/22 00:18:06;;;;;;;;;;;15.40;99.90;;;;;;5068553;28;20056;-74
2022/07/22 00:20:32;;;;;;;3.10;1.90;;;15.40;99.90;;;;;;5084777;28;20375;-76
2022/07/22 00:22:57;;;;;;;;;;;15.40;99.90;;;;;;5087126;28;20044;-75
2022/07/22 00:25:23;;;;;;;0.20;0.20;;;15.40;99.90;;;;;;5067692;28;20285;-77
2022/07/22 00:27:49;;;;;;;;;;;15.40;99.90;;;;;;5087919;28;20051;-75
2022/07/22 00:30:14;;;;;;;0.20;0.20;;;15.40;99.90;;;;;;5087143;28;19921;-76
2022/07/22 00:32:40;;;;;;;;;;;15.50;99.90;;;;;;5076568;28;20473;-75
2022/07/22 00:35:07;;;;;;;0.52;0.52;;;15.50;99.90;;;;;;5083177;28;19916;-75
2022/07/22 00:37:33;;;;;;;0.40;0.40;;;15.40;99.90;;;;;;5093970;28;20054;-76
2022/07/22 00:39:58;;;;;;;0.30;0.30;;;15.50;99.90;;;;;;5065914;28;20469;-74
2022/07/22 00:42:24;;;;;;;;;;;15.50;99.90;;;;;;5073376;28;20056;-78
2022/07/22 00:44:50;;;;;;;0.40;0.40;;;15.40;99.90;;;;;;5085846;28;19983;-74
2022/07/22 00:47:15;;;;;;;0.88;0.88;;;15.40;99.90;;;;;;5069578;28;20055;-74
2022/07/22 00:49:41;;;;;;;;;;;15.40;99.90;;;;;;5075144;28;20040;-77
2022/07/22 00:52:07;;;;;;;0.30;0.30;;;15.30;99.90;;;;;;5098414;28;19922;-76
2022/07/22 00:54:32;;;;;;;;;;;15.40;99.90;;;;;;5069397;28;20040;-74
2022/07/22 00:56:58;;;;;;;0.20;0.20;;;15.40;99.90;;;;;;5085118;28;19928;-75
2022/07/22 00:59:25;;;;;;;0.40;0.40;;;15.40;99.90;;;;;;5088678;28;20047;-75
2022/07/22 01:01:51;;;;;;;0.55;0.55;;;15.40;99.90;;;;;;5086725;28;20521;-73
2022/07/22 01:04:17;;;;;;;0.40;0.40;;;15.40;99.90;;;;;;5083002;28;20068;-74
2022/07/22 01:06:44;;;;;;;0.10;0.10;;;15.40;99.90;;;;;;5091251;28;20039;-76
2022/07/22 01:09:11;;;;;;;0.30;0.30;;;15.40;99.90;;;;;;5088161;28;20104;-75
2022/07/22 01:11:37;;;;;;;0.43;0.43;;;15.30;99.90;;;;;;5074038;28;20508;-75
2022/07/22 01:14:03;;;;;;;0.40;0.40;;;15.40;99.90;;;;;;5085610;28;20047;-73
2022/07/22 01:16:29;;;;;;;0.40;0.40;;;15.20;99.90;;;;;;5081312;28;20056;-75
2022/07/22 01:18:54;;;;;;;0.30;0.30;;;15.60;99.90;;;;;;5092911;28;20072;-74
2022/07/22 01:21:20;;;;;;;;;;;15.30;99.90;;;;;;5073152;28;20048;-75
2022/07/22 01:23:47;;;;;;;0.52;0.38;;;15.50;99.90;;;;;;5064137;28;19920;-74
2022/07/22 01:26:14;;;;;;;0.52;0.50;;;15.50;99.90;;;;;;5081241;28;20039;-74
2022/07/22 01:28:40;;;;;;;0.47;0.47;;;15.40;99.90;;;;;;5080056;28;20044;-73
2022/07/22 01:31:06;;;;;;;1.23;1.13;;;15.50;99.90;;;;;;5063779;28;20112;-74
2022/07/22 01:33:32;;;;;;;;;;;15.40;99.90;;;;;;5055853;28;20127;-74
2022/07/22 01:35:58;;;;;;;0.30;0.30;;;15.40;99.90;;;;;;5074465;28;19927;-77
2022/07/22 01:38:24;;;;;;;0.30;0.30;;;15.30;99.90;;;;;;5074943;28;20060;-73
2022/07/22 01:40:50;;;;;;;1.00;0.85;;;15.40;99.90;;;;;;5100276;28;20066;-75
2022/07/22 01:43:17;;;;;;;;;;;15.40;99.90;;;;;;5092932;28;20107;-76
2022/07/22 01:45:44;;;;;;;0.30;0.30;;;15.40;99.90;;;;;;5076408;28;20400;-76
2022/07/22 01:48:10;;;;;;;0.20;0.20;;;15.40;99.90;;;;;;5080655;28;20044;-74
2022/07/22 01:50:36;;;;;;;;;;;15.30;99.90;;;;;;5079742;28;20051;-73
2022/07/22 01:53:02;;;;;;;0.60;0.60;;;15.40;99.90;;;;;;5080457;28;20346;-75
2022/07/22 01:55:27;;;;;;;;;;;15.40;99.90;;;;;;5077345;28;20032;-75
2022/07/22 01:57:53;;;;;;;0.30;0.30;;;15.30;99.90;;;;;;5070783;28;20472;-74
2022/07/22 02:00:19;;;;;;;0.40;0.40;;;15.30;99.90;;;;;;5084985;28;20044;-74
2022/07/22 02:02:45;;;;;;;;;;;15.20;99.90;;;;;;5067397;28;20433;-74
2022/07/22 02:05:11;;;;;;;0.32;0.32;;;15.20;99.90;;;;;;5079821;28;19951;-72
2022/07/22 02:07:36;;;;;;;;;;;15.50;99.90;;;;;;5082186;28;20487;-73
2022/07/22 02:10:02;;;;;;;0.20;0.20;;;15.50;99.90;;;;;;5072527;28;19916;-75
2022/07/22 02:12:28;;;;;;;0.38;0.38;;;15.50;99.90;;;;;;5055613;28;20044;-74
2022/07/22 02:14:54;;;;;;;0.30;0.30;;;15.40;99.90;;;;;;5071927;28;20045;-74
2022/07/22 02:17:20;;;;;;;;;;;15.40;99.90;;;;;;5055159;28;20056;-75
2022/07/22 02:19:45;;;;;;;0.40;0.40;;;15.30;99.90;;;;;;5084272;28;19939;-75
2022/07/22 02:22:11;;;;;;;0.30;0.30;;;15.20;99.90;;;;;;5083344;28;20470;-75
2022/07/22 02:24:37;;;;;;;0.57;0.43;;;15.10;99.90;;;;;;5084312;28;20813;-75
2022/07/22 02:27:03;;;;;;;;;;;15.20;99.90;;;;;;5072033;28;20067;-74
2022/07/22 02:29:30;;;;;;;0.68;0.68;;;15.30;99.90;;;;;;5079228;28;19972;-74
2022/07/22 02:31:55;;;;;;;0.30;0.30;;;15.40;99.90;;;;;;5070691;28;20461;-75
2022/07/22 02:34:21;;;;;;;0.30;0.30;;;15.50;99.90;;;;;;5069941;28;20040;-75
2022/07/22 02:36:47;;;;;;;1.13;1.10;;;15.40;99.90;;;;;;5080277;28;20040;-76
2022/07/22 02:39:12;;;;;;;0.40;0.40;;;15.10;99.90;;;;;;5073720;28;20115;-77
2022/07/22 02:41:38;;;;;;;;;;;15.20;99.90;;;;;;5073173;28;20045;-74
2022/07/22 02:44:04;;;;;;;0.28;0.28;;;15.10;99.90;;;;;;5083093;28;19915;-76
2022/07/22 02:46:30;;;;;;;0.30;0.30;;;15.30;99.90;;;;;;5072639;28;20464;-76
2022/07/22 02:48:56;;;;;;;;;;;15.40;99.90;;;;;;5091313;28;20035;-74
2022/07/22 02:51:22;;;;;;;0.40;0.40;;;15.30;99.90;;;;;;5083175;28;19930;-74
2022/07/22 02:53:47;;;;;;;;;;;15.10;99.90;;;;;;5093034;28;20174;-74
2022/07/22 02:56:13;;;;;;;0.30;0.30;;;15.10;99.90;;;;;;5079946;28;19920;-75
2022/07/22 02:58:39;;;;;;;;;;;15.30;99.90;;;;;;5070763;28;20437;-76
2022/07/22 03:01:05;;;;;;;0.55;0.55;;;15.20;99.90;;;;;;5091501;28;19962;-76
2022/07/22 03:03:31;;;;;;;0.40;0.40;;;15.30;99.90;;;;;;5055660;28;20036;-74
2022/07/22 03:05:57;;;;;;;0.63;0.63;;;15.10;99.90;;;;;;5073265;28;20036;-75
2022/07/22 03:08:23;;;;;;;0.40;0.40;;;15.10;99.90;;;;;;5081512;28;20049;-75
2022/07/22 03:10:48;;;;;;;;;;;15.10;99.90;;;;;;5071356;28;20055;-74
2022/07/22 03:13:14;;;;;;;0.47;0.47;;;15.30;99.90;;;;;;5075849;28;19916;-75
2022/07/22 03:15:40;;;;;;;0.30;0.30;;;15.20;99.90;;;;;;5052456;28;20117;-75
2022/07/22 03:18:05;;;;;;;;;;;15.30;99.90;;;;;;5075397;28;20052;-76
2022/07/22 03:20:33;;;;;;;0.28;0.28;;;15.40;99.90;;;;;;5070740;28;20292;-75
2022/07/22 03:22:58;;;;;;;0.38;0.38;;;15.30;99.90;;;;;;5060696;28;20080;-75
2022/07/22 03:25:24;;;;;;;0.40;0.40;;;15.30;99.90;;;;;;5053007;28;20068;-75
2022/07/22 03:27:50;;;;;;;0.57;0.57;;;15.30;99.90;;;;;;5070424;28;20040;-76
2022/07/22 03:30:16;;;;;;;0.68;0.57;;;15.10;99.90;;;;;;5075496;28;20036;-75
2022/07/22 03:32:44;;;;;;;0.30;0.30;;;15.30;99.90;;;;;;5074477;28;20113;-74
2022/07/22 03:35:11;;;;;;;0.52;0.52;;;15.10;99.90;;;;;;5075180;28;20044;-74
2022/07/22 03:37:37;;;;;;;0.40;0.40;;;15.20;99.90;;;;;;5099788;28;20040;-77
2022/07/22 03:40:04;;;;;;;1.85;1.73;;;15.30;99.90;;;;;;5087064;28;20047;-76
2022/07/22 03:42:29;;;;;;;0.30;0.30;;;14.90;99.90;;;;;;5072905;28;20048;-75
2022/07/22 03:44:55;;;;;;;0.30;0.30;;;15.10;99.90;;;;;;5082207;28;20051;-74
2022/07/22 03:47:22;;;;;;;4.75;0.50;;;15.10;99.90;;;;;;5083117;28;20390;-76
2022/07/22 03:49:49;;;;;;;0.30;0.30;;;15.10;99.90;;;;;;5074802;28;20055;-76
2022/07/22 03:52:15;;;;;;;0.30;0.30;;;15.00;99.90;;;;;;5055933;28;20044;-75
2022/07/22 03:54:42;;;;;;;0.90;0.45;;;15.30;99.90;;;;;;5082989;28;20040;-74
2022/07/22 03:57:08;;;;;;;0.50;0.50;;;15.30;99.90;;;;;;5064694;28;20045;-75
2022/07/22 03:59:34;;;;;;;0.30;0.30;;;15.00;99.90;;;;;;5072932;28;20052;-75
2022/07/22 04:02:00;;;;;;;0.30;0.30;;;15.10;99.90;;;;;;5075741;28;20044;-74
2022/07/22 04:04:25;;;;;;;0.55;0.55;;;15.30;99.90;;;;;;5081136;28;20440;-76
2022/07/22 04:06:51;;;;;;;0.35;0.35;;;15.10;99.90;;;;;;5067229;28;20036;-75
2022/07/22 04:09:17;;;;;;;;;;;15.50;99.90;;;;;;5080469;28;20055;-76
2022/07/22 04:11:43;;;;;;;0.40;0.40;;;15.20;99.90;;;;;;5056023;28;19917;-76
2022/07/22 04:14:09;;;;;;;;;;;15.20;99.90;;;;;;5076962;28;20044;-76
2022/07/22 04:16:34;;;;;;;0.25;0.25;;;15.10;99.90;;;;;;5071774;28;20415;-76
2022/07/22 04:19:01;;;;;;;;;;;15.60;99.90;;;;;;5081569;28;20051;-75
2022/07/22 04:21:27;;;;;;;0.30;0.30;;;15.30;99.90;;;;;;5077642;28;19920;-75
2022/07/22 04:23:53;;;;;;;0.30;0.30;;;15.40;99.90;;;;;;5096542;28;20142;-74
2022/07/22 04:26:19;;;;;;;0.30;0.30;;;15.20;99.90;;;;;;5072599;28;20044;-75
2022/07/22 04:28:45;;;;;;;0.25;0.25;;;15.30;99.90;;;;;;5087541;28;20051;-74
2022/07/22 04:31:10;;;;;;;0.40;0.40;;;15.10;99.90;;;;;;5066891;28;20040;-75
2022/07/22 04:33:36;;;;;;;0.32;0.32;;;15.10;99.90;;;;;;5086010;28;20921;-78
2022/07/22 04:36:02;;;;;;;0.30;0.30;;;15.20;99.90;;;;;;5081552;28;20048;-75
2022/07/22 04:38:28;;;;;;;;;;;15.20;99.90;;;;;;5081498;28;20140;-77
2022/07/22 04:40:54;;;;;;;0.43;0.43;;;15.30;99.90;;;;;;5084251;28;19922;-76
2022/07/22 04:43:20;;;;;;;0.63;0.40;;;15.30;99.90;;;;;;5083861;28;20166;-74
2022/07/22 04:45:48;;;;;;;0.40;0.40;;;15.40;99.90;;;;;;5083375;28;20042;-75
2022/07/22 04:48:14;;;;;;;0.32;0.32;;;15.30;99.90;;;;;;5087544;28;20059;-79
2022/07/22 04:50:40;;;;;;;0.47;0.47;;;15.30;99.90;;;;;;5076828;28;20117;-81
2022/07/22 04:53:05;;;;;;;;;;;15.30;99.90;;;;;;5089896;28;20051;-79
2022/07/22 04:55:31;;;;;;;0.17;0.17;;;15.60;99.90;;;;;;5065021;28;19928;-79
2022/07/22 04:57:56;;;;;;;;;;;15.40;99.90;;;;;;5079599;28;20094;-76
2022/07/22 05:00:23;;;;;;;0.30;0.30;;;15.50;99.90;;;;;;5060669;28;19930;-78
2022/07/22 05:02:49;;;;;;;0.30;0.30;;;15.60;99.90;;;;;;5085087;28;20048;-77
2022/07/22 05:05:15;;;;;;;0.35;0.35;;;15.70;99.90;;;;;;5086805;28;20055;-76
2022/07/22 05:07:41;;;;;;;0.30;0.30;;;15.70;99.90;;;;;;5080483;28;20047;-76
2022/07/22 05:10:06;;;;;;;;;;;15.60;99.90;;;;;;5062562;28;20040;-78
2022/07/22 05:12:32;;;;;;;0.20;0.20;;;15.20;99.90;;;;;;5070881;28;19927;-79
2022/07/22 05:14:58;;;;;;;0.25;0.25;;;15.50;99.90;;;;;;5072022;28;20042;-80
2022/07/22 05:17:24;;;;;;;;;;;15.60;99.90;;;;;;5058878;28;20087;-75
2022/07/22 05:19:49;;;;;;;0.30;0.30;;;15.40;99.90;;;;;;5087033;28;19924;-77
2022/07/22 05:22:15;;;;;;;0.22;0.22;;;15.60;99.90;;;;;;5082347;28;20051;-76
2022/07/22 05:24:40;;;;;;;;;;;15.70;99.90;;;;;;5089953;28;20638;-76
2022/07/22 05:27:06;;;;;;;0.70;0.70;;;15.70;99.90;;;;;;5083561;28;19920;-78
2022/07/22 05:29:32;;;;;;;;;;;15.80;99.90;;;;;;5081445;28;20127;-80
2022/07/22 05:31:57;;;;;;;0.55;0.40;;;15.90;99.90;;;;;;5057502;28;19924;-76
2022/07/22 05:34:23;;;;;;;0.32;0.32;;;15.70;99.90;;;;;;5071737;28;20552;-78
2022/07/22 05:36:49;;;;;;;;;;;16.00;99.90;;;;;;5063422;28;20068;-79
2022/07/22 05:39:15;;;;;;;0.30;0.30;;;15.90;99.90;;;;;;5066954;28;19958;-79
2022/07/22 05:41:40;;;;;;;;;;;16.20;99.90;;;;;;5073977;28;20115;-79
2022/07/22 05:44:06;;;;;;;0.22;0.22;;;16.60;99.90;;;;;;5080307;28;19966;-79
2022/07/22 05:46:32;;;;;;;;;;;15.80;99.90;;;;;;5061949;28;20055;-80
2022/07/22 05:48:58;;;;;;;0.40;0.40;;;16.10;99.90;;;;;;5051134;28;19966;-83
2022/07/22 05:51:24;;;;;;;0.20;0.20;;;16.10;99.90;;;;;;5065816;28;20048;-79
2022/07/22 05:53:50;;;;;;;0.30;0.30;;;16.10;99.90;;;;;;5075045;28;20051;-84
2022/07/22 05:56:16;;;;;;;0.22;0.22;;;16.20;99.90;;;;;;5066060;28;20039;-83
2022/07/22 05:58:42;;;;;;;;;;;16.50;99.90;;;;;;5059221;28;20087;-84
2022/07/22 06:01:09;;;;;;;0.20;0.20;;;16.30;99.90;;;;;;5063615;28;20033;-82
2022/07/22 06:03:35;;;;;;;0.30;0.30;;;16.00;99.90;;;;;;5056126;28;20039;-84
2022/07/22 06:06:04;;;;;;;0.40;0.40;;;16.40;99.90;;;;;;5074733;28;20545;-80
2022/07/22 06:08:30;;;;;;;0.40;0.40;;;16.20;99.90;;;;;;5070144;28;20055;-81
2022/07/22 06:10:59;;;;;;;0.28;0.28;;;16.20;99.90;;;;;;5061981;28;20040;-76
2022/07/22 06:13:25;;;;;;;0.30;0.30;;;16.00;99.90;;;;;;5081675;28;20055;-77
2022/07/22 06:15:51;;;;;;;0.30;0.30;;;16.10;99.90;;;;;;5077273;28;20492;-81
2022/07/22 06:18:17;;;;;;;0.93;0.93;;;16.00;99.90;;;;;;5080819;28;20143;-78
2022/07/22 06:20:42;;;;;;;;;;;16.20;99.90;;;;;;5053263;28;20127;-77
2022/07/22 06:23:08;;;;;;;0.30;0.30;;;16.10;99.90;;;;;;5089954;28;19955;-77
2022/07/22 06:25:34;;;;;;;1.00;0.40;;;16.20;99.90;;;;;;5060118;28;20051;-80
2022/07/22 06:28:00;;;;;;;0.30;0.30;;;16.30;99.90;;;;;;5063028;28;20047;-78
2022/07/22 06:30:26;;;;;;;;;;;16.40;99.90;;;;;;5059199;28;20083;-81
2022/07/22 06:32:52;;;;;;;0.40;0.40;;;16.70;99.90;;;;;;5076196;28;19931;-80
2022/07/22 06:35:18;;;;;;;0.93;0.35;;;16.70;99.90;;;;;;5092916;28;20036;-77
2022/07/22 06:37:44;;;;;;;0.22;0.22;;;16.70;99.90;;;;;;5093692;28;20071;-80
2022/07/22 06:40:11;;;;;;;0.40;0.40;;;17.10;99.90;;;;;;5058971;28;20100;-78
2022/07/22 06:42:37;;;;;;;0.30;0.30;;;16.80;99.90;;;;;;5075328;28;20036;-78
2022/07/22 06:45:09;;;;;;;0.52;0.52;;;17.20;99.90;;;;;;5072694;28;20401;-76
2022/07/22 06:47:35;;;;;;;0.30;0.30;;;17.10;99.90;;;;;;5079422;28;20080;-81
2022/07/22 06:50:02;;;;;;;;;;;16.90;99.90;;;;;;5078260;28;20064;-76
2022/07/22 06:52:28;;;;;;;0.40;0.40;;;17.10;99.90;;;;;;5073771;28;20365;-74
2022/07/22 06:54:53;;;;;;;0.30;0.30;;;17.10;99.90;;;;;;5073635;28;20044;-77
2022/07/22 06:57:19;;;;;;;;;;;17.10;99.90;;;;;;5075481;28;20068;-76
2022/07/22 06:59:44;;;;;;;0.55;0.55;;;17.20;99.90;;;;;;5073580;28;20280;-77
2022/07/22 07:02:10;;;;;;;;;;;17.00;99.90;;;;;;5074544;28;20036;-76
2022/07/22 07:04:36;;;;;;;0.30;0.30;;;17.50;99.90;;;;;;5055763;28;20011;-77
2022/07/22 07:07:01;;;;;;;;;;;17.20;99.90;;;;;;5077648;28;20113;-76
2022/07/22 07:09:27;;;;;;;2.00;0.50;;;17.10;99.90;;;;;;5075150;28;19971;-79
2022/07/22 07:11:52;;;;;;;;;;;17.20;99.90;;;;;;5071743;28;20048;-80
2022/07/22 07:14:18;;;;;;;0.35;0.35;;;17.40;99.90;;;;;;5061421;28;19959;-76
2022/07/22 07:16:44;;;;;;;;;;;17.40;99.90;;;;;;5076254;28;20048;-77
2022/07/22 07:19:09;;;;;;;0.75;0.60;;;17.70;99.90;;;;;;5067058;28;20018;-77
2022/07/22 07:21:35;;;;;;;;;;;17.50;99.90;;;;;;5081283;28;20150;-75
2022/07/22 07:24:01;;;;;;;0.20;0.20;;;17.60;99.90;;;;;;5059078;28;20350;-77
2022/07/22 07:26:27;;;;;;;;;;;17.60;99.90;;;;;;5075955;28;20048;-76
2022/07/22 07:28:53;;;;;;;0.30;0.30;;;17.90;99.90;;;;;;5074586;28;19928;-80
2022/07/22 07:31:18;;;;;;;;;;;18.00;99.90;;;;;;5061860;28;20040;-79
2022/07/22 07:33:44;;;;;;;0.40;0.40;;;17.90;99.90;;;;;;5075860;28;19923;-77
2022/07/22 07:36:10;;;;;;;;;;;18.10;99.90;;;;;;5075421;28;20102;-78
2022/07/22 07:38:36;;;;;;;0.30;0.30;;;18.00;99.90;;;;;;5092006;28;20014;-78
2022/07/22 07:41:01;;;;;;;;;;;18.00;99.90;;;;;;5081792;28;20045;-78
2022/07/22 07:43:27;;;;;;;0.30;0.30;;;18.00;99.90;;;;;;5076531;28;19959;-77
2022/07/22 07:45:53;;;;;;;;;;;18.20;99.90;;;;;;5059779;28;20079;-78
2022/07/22 07:48:18;;;;;;;0.22;0.22;;;18.10;99.90;;;;;;5078262;28;19963;-77
2022/07/22 07:50:44;;;;;;;;;;;18.20;99.90;;;;;;5085331;28;20650;-76
2022/07/22 07:53:14;;;;;;;0.35;0.25;;;18.20;99.90;;;;;;5078589;28;19978;-75
2022/07/22 07:55:40;;;;;;;0.30;0.30;;;18.10;99.90;;;;;;5075514;28;20574;-79
2022/07/22 07:58:06;;;;;;;;;;;18.30;99.90;;;;;;5080373;28;20132;-77
2022/07/22 08:00:33;;;;;;;0.30;0.30;;;18.20;99.90;;;;;;5077795;28;19916;-77
2022/07/22 08:03:00;;;;;;;0.30;0.30;;;18.60;99.90;;;;;;5073575;28;20044;-77
2022/07/22 08:05:26;;;;;;;0.20;0.20;;;18.70;99.90;;;;;;5071717;28;20047;-77
2022/07/22 08:07:51;;;;;;;;;;;18.50;99.90;;;;;;5071885;28;20083;-76
2022/07/22 08:10:20;;;;;;;0.30;0.30;;;18.70;99.90;;;;;;5076597;28;20384;-77
2022/07/22 08:12:47;;;;;;;0.30;0.30;;;18.90;99.90;;;;;;5096387;28;20046;-77
2022/07/22 08:15:13;;;;;;;0.30;0.30;;;18.60;99.90;;;;;;5080313;28;20116;-77
2022/07/22 08:17:38;;;;;;;;;;;18.40;99.90;;;;;;5060403;28;20159;-77
2022/07/22 08:20:05;;;;;;;0.30;0.30;;;18.30;99.90;;;;;;5085014;28;19920;-78
2022/07/22 08:22:31;;;;;;;0.40;0.40;;;18.30;99.90;;;;;;5071852;28;20044;-77
2022/07/22 08:24:57;;;;;;;0.52;0.45;;;18.50;99.90;;;;;;5075056;28;20055;-76
2022/07/22 08:27:23;;;;;;;;;;;18.30;99.90;;;;;;5077241;28;20079;-77
2022/07/22 08:29:48;;;;;;;0.30;0.30;;;18.30;99.90;;;;;;5076475;28;19970;-76
2022/07/22 08:32:14;;;;;;;;;;;18.00;99.90;;;;;;5082874;28;20114;-76
2022/07/22 08:34:40;;;;;;;0.20;0.20;;;18.30;99.90;;;;;;5086606;28;19920;-76
2022/07/22 08:37:05;;;;;;;;;;;18.10;99.90;;;;;;5073914;28;20055;-77
2022/07/22 08:39:33;;;;;;;0.30;0.30;;;17.90;99.90;;;;;;5084536;28;19920;-76
2022/07/22 08:41:59;;;;;;;0.20;0.20;;;17.80;99.90;;;;;;5083519;28;20044;-79
2022/07/22 08:44:28;;;;;;;;;;;17.60;99.90;;;;;;5067394;28;20130;-80
2022/07/22 08:46:54;;;;;;;0.25;0.25;;;17.80;99.90;;;;;;5087267;28;19916;-79
2022/07/22 08:49:20;;;;;;;;;;;17.70;99.90;;;;;;5055061;28;20543;-79
2022/07/22 08:51:45;;;;;;;0.40;0.40;;;17.60;99.90;;;;;;5066934;28;20006;-79
2022/07/22 08:54:11;;;;;;;;;;;17.60;99.90;;;;;;5076824;28;20082;-78
2022/07/22 08:56:38;;;;;;;0.43;0.43;;;17.70;99.90;;;;;;5085490;28;20337;-78
2022/07/22 08:59:04;;;;;;;0.30;0.30;;;17.40;99.90;;;;;;5078038;28;20040;-78
2022/07/22 09:01:30;;;;;;;0.75;0.75;;;17.50;99.90;;;;;;5087142;28;20589;-77
2022/07/22 09:03:56;;;;;;;;;;;17.90;99.90;;;;;;5074963;28;20040;-78
2022/07/22 09:06:24;;;;;;;0.30;0.30;;;17.90;99.90;;;;;;5078065;28;19927;-77
2022/07/22 09:08:51;;;;;;;0.65;0.65;;;18.10;99.90;;;;;;5072574;28;20045;-78
2022/07/22 09:11:23;;;;;;;0.20;0.20;;;17.90;99.90;;;;;;5069538;28;20883;-78
2022/07/22 09:13:49;;;;;;;0.30;0.30;;;18.20;99.90;;;;;;5071804;28;20055;-76
2022/07/22 09:16:15;;;;;;;0.35;0.35;;;18.20;99.90;;;;;;5072202;28;20119;-76
2022/07/22 09:18:53;;;;;;;0.40;0.40;;;18.40;99.90;;;;;;5081944;28;20047;-76
2022/07/22 09:21:20;;;;;;;0.30;0.30;;;18.20;99.90;;;;;;5082439;28;20387;-74
2022/07/22 09:23:46;;;;;;;0.32;0.32;;;18.20;99.90;;;;;;5079241;28;20546;-75
2022/07/22 09:26:30;;;;;;;;;;;18.50;99.90;;;;;;5078837;28;20040;-74
2022/07/22 09:28:58;;;;;;;0.60;0.60;;;18.30;99.90;;;;;;5056664;28;20384;-76
2022/07/22 09:31:26;;;;;;;0.40;0.40;;;18.40;99.90;;;;;;5073975;28;20036;-75
2022/07/22 09:33:53;;;;;;;0.20;0.20;;;18.40;99.90;;;;;;5083743;28;20391;-75
2022/07/22 09:36:19;;;;;;;0.20;0.20;;;18.40;99.90;;;;;;5077165;28;20422;-78
2022/07/22 09:38:45;;;;;;;0.30;0.30;;;18.20;99.90;;;;;;5074797;28;20036;-75
2022/07/22 09:41:11;;;;;;;;;;;18.30;99.90;;;;;;5081690;28;20074;-76
2022/07/22 09:43:37;;;;;;;0.40;0.40;;;18.30;99.90;;;;;;5084723;28;20289;-76
2022/07/22 09:46:04;;;;;;;0.25;0.25;;;18.20;99.90;;;;;;5078310;28;20462;-75
2022/07/22 09:48:30;;;;;;;0.35;0.35;;;18.40;99.90;;;;;;5082698;28;20080;-75
2022/07/22 09:50:56;;;;;;;;;;;18.20;99.90;;;;;;5072847;28;20078;-75
2022/07/22 09:53:25;;;;;;;0.60;0.60;;;18.40;99.90;;;;;;5073196;28;20401;-75
2022/07/22 09:55:51;;;;;;;0.30;0.30;;;18.80;99.90;;;;;;5077302;28;20048;-75
2022/07/22 09:58:16;;;;;;;;;;;18.70;99.90;;;;;;5072801;28;20028;-75
2022/07/22 10:00:43;;;;;;;0.22;0.22;;;19.10;99.90;;;;;;5084244;28;20051;-75
2022/07/22 10:03:16;;;;;;;0.40;0.40;;;19.00;99.90;;;;;;5072584;28;20078;-76
2022/07/22 10:05:43;;;;;;;0.35;0.35;;;19.30;99.90;;;;;;5082523;28;20454;-75
2022/07/22 10:08:09;;;;;;;0.30;0.30;;;19.40;99.90;;;;;;5074739;28;20040;-76
2022/07/22 10:10:37;;;;;;;0.30;0.30;;;19.60;99.90;;;;;;5079729;28;20528;-75
2022/07/22 10:13:05;;;;;;;0.20;0.20;;;19.60;99.90;;;;;;5083743;28;20079;-75
2022/07/22 10:15:33;;;;;;;0.20;0.20;;;19.60;99.90;;;;;;5087465;28;20435;-75
2022/07/22 10:18:03;;;;;;;0.30;0.30;;;19.70;99.90;;;;;;5087049;28;20135;-77
2022/07/22 10:20:30;;;;;;;0.43;0.43;;;19.80;99.90;;;;;;5080141;28;20044;-76
2022/07/22 10:23:01;;;;;;;0.30;0.30;;;19.70;99.90;;;;;;5075624;28;20044;-74
2022/07/22 10:25:52;;;;;;;0.30;0.30;;;19.80;99.90;;;;;;5069980;28;20033;-75
2022/07/22 10:28:23;;;;;;;0.30;0.30;;;19.60;99.90;;;;;;5077769;28;20051;-75
2022/07/22 10:30:49;;;;;;;0.40;0.40;;;19.80;99.90;;;;;;5082069;28;20108;-75
2022/07/22 10:33:20;;;;;;;0.40;0.40;;;19.90;99.90;;;;;;5081961;28;20063;-75
2022/07/22 10:36:10;;;;;;;0.30;0.30;;;19.90;99.90;;;;;;5086677;28;20108;-75
2022/07/22 10:38:35;;;;;;;0.40;0.40;;;20.10;99.90;;;;;;5078668;28;20048;-75
2022/07/22 10:41:03;;;;;;;0.40;0.40;;;20.00;99.90;;;;;;5076403;28;20032;-76
2022/07/22 10:43:31;;;;;;;0.20;0.20;;;20.10;99.90;;;;;;5077550;28;20040;-75
2022/07/22 10:45:59;;;;;;;0.30;0.30;;;20.00;99.90;;;;;;5074124;28;20040;-75
2022/07/22 10:48:37;;;;;;;0.30;0.30;;;20.00;99.90;;;;;;5075068;28;21083;-75
2022/07/22 10:51:31;;;;;;;0.30;0.30;;;19.90;99.90;;;;;;5078598;28;20048;-76
2022/07/22 10:54:02;;;;;;;0.30;0.30;;;19.90;99.90;;;;;;5044853;28;20044;-75
2022/07/22 10:56:35;;;;;;;0.30;0.30;;;20.10;99.90;;;;;;5084158;28;20051;-75
2022/07/22 10:59:14;;;;;;;0.30;0.30;;;20.30;99.90;;;;;;5083547;28;20051;-75
2022/07/22 11:01:48;;;;;;;0.30;0.30;;;20.50;99.90;;;;;;5077410;28;20047;-74
2022/07/22 11:04:23;;;;;;;0.30;0.30;;;20.40;99.90;;;;;;5071520;28;20485;-77
2022/07/22 11:06:54;;;;;;;0.30;0.30;;;20.50;99.90;;;;;;5080518;28;20037;-76
2022/07/22 11:09:22;;;;;;;0.40;0.40;;;20.30;99.90;;;;;;5064982;28;20051;-77
2022/07/22 11:11:50;;;;;;;0.30;0.30;;;20.30;99.90;;;;;;5082875;28;20462;-76
2022/07/22 11:14:26;;;;;;;0.20;0.20;;;19.90;99.90;;;;;;5073620;28;20048;-77
2022/07/22 11:16:54;;;;;;;0.28;0.28;;;19.90;99.90;;;;;;5071444;28;20506;-79
2022/07/22 11:19:39;;;;;;;0.30;0.30;;;19.50;99.90;;;;;;5068229;28;20044;-76
2022/07/22 11:22:10;;;;;;;0.40;0.40;;;19.20;99.90;;;;;;5074265;28;20041;-75
2022/07/22 11:24:37;;;;;;;16.25;2.35;;;19.10;99.90;;;;;;5066845;28;20094;-76
2022/07/22 11:27:04;;;;;;;0.20;0.20;;;19.10;99.90;;;;;;5071882;28;20097;-77
2022/07/22 11:29:46;;;;;;;0.28;0.28;;;18.80;99.90;;;;;;5082009;28;20060;-74
2022/07/22 11:32:13;;;;;;;0.30;0.30;;;19.00;99.90;;;;;;5071357;28;20050;-76
2022/07/22 11:34:44;;;;;;;0.45;0.40;;;19.10;99.90;;;;;;5067390;28;20456;-74
2022/07/22 11:37:11;;;;;;;0.20;0.20;;;19.30;99.90;;;;;;5077901;28;20505;-75
2022/07/22 11:39:37;;;;;;;0.25;0.25;;;19.10;99.90;;;;;;5074877;28;20449;-76
2022/07/22 11:42:03;;;;;;;0.22;0.22;;;19.10;99.90;;;;;;5075418;28;20044;-76
2022/07/22 11:44:31;;;;;;;0.32;0.32;;;19.20;99.90;;;;;;5079163;28;20041;-78
2022/07/22 11:47:00;;;;;;;0.20;0.20;;;19.20;99.90;;;;;;5078230;28;20657;-76
2022/07/22 11:49:36;;;;;;;0.30;0.30;;;19.20;99.90;;;;;;5071697;28;20049;-78
2022/07/22 11:52:13;;;;;;;0.20;0.20;;;19.30;99.90;;;;;;5085751;28;20075;-77
2022/07/22 11:54:42;;;;;;;0.40;0.40;;;19.60;99.90;;;;;;5066257;28;20044;-77
2022/07/22 11:57:08;;;;;;;0.20;0.20;;;19.60;99.90;;;;;;5081308;28;20683;-77
2022/07/22 11:59:37;;;;;;;0.30;0.30;;;19.60;99.90;;;;;;5084988;28;20453;-77
2022/07/22 12:02:09;;;;;;;0.25;0.25;;;19.70;99.90;;;;;;5079666;28;20083;-76
2022/07/22 12:04:36;;;;;;;0.30;0.30;;;19.80;99.90;;;;;;5081347;28;20419;-78
2022/07/22 12:07:03;;;;;;;0.25;0.25;;;20.00;99.90;;;;;;5077630;28;20339;-78
2022/07/22 12:09:33;;;;;;;0.30;0.30;;;20.20;99.90;;;;;;5083532;28;20071;-75
2022/07/22 12:11:59;;;;;;;0.20;0.20;;;20.10;99.90;;;;;;5078368;28;20033;-74
2022/07/22 12:14:31;;;;;;;0.32;0.32;;;20.20;99.90;;;;;;5076775;28;20056;-75
2022/07/22 12:17:06;;;;;;;0.47;0.43;;;20.30;99.90;;;;;;5064675;28;20052;-74
2022/07/22 12:19:34;;;;;;;0.30;0.30;;;20.20;99.90;;;;;;5091239;28;20139;-75
2022/07/22 12:22:04;;;;;;;0.20;0.20;;;20.30;99.90;;;;;;5080935;28;20072;-73
2022/07/22 12:24:36;;;;;;;0.30;0.30;;;20.60;99.90;;;;;;5086029;28;20416;-75
2022/07/22 12:27:06;;;;;;;0.17;0.17;;;20.50;99.90;;;;;;5075231;28;20094;-74
2022/07/22 12:29:43;;;;;;;0.32;0.32;;;20.60;99.90;;;;;;5080532;28;20062;-74
2022/07/22 12:32:25;;;;;;;0.28;0.28;;;20.70;99.90;;;;;;5074283;28;20056;-74
2022/07/22 12:34:53;;;;;;;0.30;0.30;;;20.60;99.90;;;;;;5072990;28;20052;-73
2022/07/22 12:37:22;;;;;;;0.20;0.20;;;20.40;99.90;;;;;;5079532;28;20389;-74
2022/07/22 12:40:08;;;;;;;0.57;0.57;;;20.40;99.90;;;;;;5073742;28;20036;-74
2022/07/22 12:42:39;;;;;;;0.30;0.30;;;20.40;99.90;;;;;;5071594;28;20036;-74
2022/07/22 12:45:14;;;;;;;0.40;0.40;;;20.50;99.90;;;;;;5084819;28;20045;-75
2022/07/22 12:47:55;;;;;;;0.40;0.40;;;20.30;99.90;;;;;;5079974;28;20102;-75
2022/07/22 12:50:34;;;;;;;0.20;0.20;;;20.40;99.90;;;;;;5080353;28;20052;-75
2022/07/22 12:53:11;;;;;;;0.20;0.20;;;20.60;99.90;;;;;;5075480;28;20100;-76
2022/07/22 12:55:40;;;;;;;0.30;0.30;;;20.60;99.90;;;;;;5080824;28;20044;-76
2022/07/22 12:58:07;;;;;;;0.20;0.20;;;20.80;99.90;;;;;;5075561;28;20072;-75
2022/07/22 13:00:35;;;;;;;0.28;0.28;;;20.80;99.90;;;;;;5094302;28;20468;-75
2022/07/22 13:03:01;;;;;;;0.20;0.20;;;21.00;99.90;;;;;;5080985;28;20047;-75
2022/07/22 13:05:29;;;;;;;0.22;0.22;;;21.00;99.90;;;;;;5076171;28;20036;-75